sensor_id;sensor_type;location;lat;lon;timestamp;P1;durP1;ratioP1;P2;durP2;ratioP2
18716;SDS011;9487;50.892;6.906;2022-12-20T00:00:54;2.10;;;1.90;;
18716;SDS011;9487;50.892;6.906;2022-12-20T00:03:21;2.97;;;2.47;;
18716;SDS011;9487;50.892;6.906;2022-12-20T00:05:48;3.53;;;2.20;;
18716;SDS011;9487;50.892;6.906;2022-12-20T00:08:16;3.20;;;2.13;;
18716;SDS011;9487;50.892;6.906;2022-12-20T00:10:43;3.23;;;2.50;;
18716;SDS011;9487;50.892;6.906;2022-12-20T00:13:11;2.90;;;2.10;;
18716;SDS011;9487;50.892;6.906;2022-12-20T00:15:38;2.93;;;2.47;;
18716;SDS011;9487;50.892;6.906;2022-12-20T00:18:05;2.37;;;2.17;;
18716;SDS011;9487;50.892;6.906;2022-12-20T00:20:32;3.83;;;2.40;;
18716;SDS011;9487;50.892;6.906;2022-12-20T00:22:59;3.70;;;2.10;;
18716;SDS011;9487;50.892;6.906;2022-12-20T00:25:27;3.03;;;2.47;;
18716;SDS011;9487;50.892;6.906;2022-12-20T00:27:54;3.67;;;2.33;;
18716;SDS011;9487;50.892;6.906;2022-12-20T00:30:21;2.57;;;2.37;;
18716;SDS011;9487;50.892;6.906;2022-12-20T00:32:48;4.83;;;2.70;;
18716;SDS011;9487;50.892;6.906;2022-12-20T00:35:15;3.60;;;2.40;;
18716;SDS011;9487;50.892;6.906;2022-12-20T00:37:42;3.87;;;2.90;;
18716;SDS011;9487;50.892;6.906;2022-12-20T00:40:08;3.00;;;2.70;;
18716;SDS011;9487;50.892;6.906;2022-12-20T00:42:37;3.70;;;3.30;;
18716;SDS011;9487;50.892;6.906;2022-12-20T00:45:04;4.17;;;3.77;;
18716;SDS011;9487;50.892;6.906;2022-12-20T00:47:31;4.20;;;3.80;;
18716;SDS011;9487;50.892;6.906;2022-12-20T00:49:59;4.43;;;3.60;;
18716;SDS011;9487;50.892;6.906;2022-12-20T00:52:25;4.43;;;3.60;;
18716;SDS011;9487;50.892;6.906;2022-12-20T00:54:52;5.03;;;3.93;;
18716;SDS011;9487;50.892;6.906;2022-12-20T00:57:19;5.87;;;4.60;;
18716;SDS011;9487;50.892;6.906;2022-12-20T00:59:47;5.27;;;4.33;;
18716;SDS011;9487;50.892;6.906;2022-12-20T01:02:14;4.83;;;4.23;;
18716;SDS011;9487;50.892;6.906;2022-12-20T01:04:41;6.57;;;4.30;;
18716;SDS011;9487;50.892;6.906;2022-12-20T01:07:08;6.93;;;4.30;;
18716;SDS011;9487;50.892;6.906;2022-12-20T01:09:35;4.50;;;4.10;;
18716;SDS011;9487;50.892;6.906;2022-12-20T01:12:02;4.77;;;4.27;;
18716;SDS011;9487;50.892;6.906;2022-12-20T01:14:29;4.63;;;4.07;;
18716;SDS011;9487;50.892;6.906;2022-12-20T01:16:57;4.60;;;4.20;;
18716;SDS011;9487;50.892;6.906;2022-12-20T01:19:24;6.70;;;4.70;;
18716;SDS011;9487;50.892;6.906;2022-12-20T01:21:51;4.90;;;4.23;;
18716;SDS011;9487;50.892;6.906;2022-12-20T01:24:18;7.13;;;4.90;;
18716;SDS011;9487;50.892;6.906;2022-12-20T01:26:45;5.17;;;4.57;;
18716;SDS011;9487;50.892;6.906;2022-12-20T01:29:12;5.60;;;4.40;;
18716;SDS011;9487;50.892;6.906;2022-12-20T01:31:39;5.53;;;4.30;;
18716;SDS011;9487;50.892;6.906;2022-12-20T01:34:08;5.37;;;3.87;;
18716;SDS011;9487;50.892;6.906;2022-12-20T01:36:35;4.87;;;3.50;;
18716;SDS011;9487;50.892;6.906;2022-12-20T01:39:03;4.53;;;4.13;;
18716;SDS011;9487;50.892;6.906;2022-12-20T01:41:32;5.53;;;3.40;;
18716;SDS011;9487;50.892;6.906;2022-12-20T01:44:01;4.13;;;3.70;;
18716;SDS011;9487;50.892;6.906;2022-12-20T01:46:29;4.10;;;3.60;;
18716;SDS011;9487;50.892;6.906;2022-12-20T01:48:58;5.33;;;4.30;;
18716;SDS011;9487;50.892;6.906;2022-12-20T01:51:30;6.33;;;4.70;;
18716;SDS011;9487;50.892;6.906;2022-12-20T01:54:02;6.67;;;4.93;;
18716;SDS011;9487;50.892;6.906;2022-12-20T01:56:32;6.13;;;4.90;;
18716;SDS011;9487;50.892;6.906;2022-12-20T01:59:00;4.80;;;4.37;;
18716;SDS011;9487;50.892;6.906;2022-12-20T02:01:27;5.40;;;4.90;;
18716;SDS011;9487;50.892;6.906;2022-12-20T02:03:54;5.23;;;4.73;;
18716;SDS011;9487;50.892;6.906;2022-12-20T02:06:22;5.57;;;4.40;;
18716;SDS011;9487;50.892;6.906;2022-12-20T02:08:53;5.13;;;4.30;;
18716;SDS011;9487;50.892;6.906;2022-12-20T02:11:27;6.23;;;4.30;;
18716;SDS011;9487;50.892;6.906;2022-12-20T02:14:07;4.47;;;4.07;;
18716;SDS011;9487;50.892;6.906;2022-12-20T02:16:41;4.40;;;4.00;;
18716;SDS011;9487;50.892;6.906;2022-12-20T02:19:17;5.77;;;4.17;;
18716;SDS011;9487;50.892;6.906;2022-12-20T02:21:55;7.23;;;3.47;;
18716;SDS011;9487;50.892;6.906;2022-12-20T02:24:43;5.67;;;3.97;;
18716;SDS011;9487;50.892;6.906;2022-12-20T02:27:25;5.00;;;4.00;;
18716;SDS011;9487;50.892;6.906;2022-12-20T02:30:11;4.57;;;4.07;;
18716;SDS011;9487;50.892;6.906;2022-12-20T02:32:42;4.90;;;4.00;;
18716;SDS011;9487;50.892;6.906;2022-12-20T02:35:16;5.83;;;4.20;;
18716;SDS011;9487;50.892;6.906;2022-12-20T02:37:47;7.50;;;4.13;;
18716;SDS011;9487;50.892;6.906;2022-12-20T02:40:16;5.07;;;3.90;;
18716;SDS011;9487;50.892;6.906;2022-12-20T02:42:47;5.90;;;4.33;;
18716;SDS011;9487;50.892;6.906;2022-12-20T02:45:19;4.17;;;3.30;;
18716;SDS011;9487;50.892;6.906;2022-12-20T02:47:48;3.93;;;3.53;;
18716;SDS011;9487;50.892;6.906;2022-12-20T02:50:21;3.73;;;3.30;;
18716;SDS011;9487;50.892;6.906;2022-12-20T02:52:51;4.43;;;3.20;;
18716;SDS011;9487;50.892;6.906;2022-12-20T02:55:19;4.13;;;3.50;;
18716;SDS011;9487;50.892;6.906;2022-12-20T02:57:58;4.07;;;3.43;;
18716;SDS011;9487;50.892;6.906;2022-12-20T03:00:30;5.43;;;3.90;;
18716;SDS011;9487;50.892;6.906;2022-12-20T03:03:02;4.13;;;3.80;;
18716;SDS011;9487;50.892;6.906;2022-12-20T03:05:49;4.10;;;3.70;;
18716;SDS011;9487;50.892;6.906;2022-12-20T03:08:18;5.47;;;4.37;;
18716;SDS011;9487;50.892;6.906;2022-12-20T03:10:46;5.70;;;3.83;;
18716;SDS011;9487;50.892;6.906;2022-12-20T03:13:13;4.93;;;3.30;;
18716;SDS011;9487;50.892;6.906;2022-12-20T03:15:41;5.13;;;3.90;;
18716;SDS011;9487;50.892;6.906;2022-12-20T03:18:08;6.67;;;3.93;;
18716;SDS011;9487;50.892;6.906;2022-12-20T03:20:35;5.07;;;3.57;;
18716;SDS011;9487;50.892;6.906;2022-12-20T03:23:03;5.73;;;3.80;;
18716;SDS011;9487;50.892;6.906;2022-12-20T03:25:30;4.03;;;3.73;;
18716;SDS011;9487;50.892;6.906;2022-12-20T03:27:56;4.87;;;3.97;;
18716;SDS011;9487;50.892;6.906;2022-12-20T03:30:23;4.77;;;3.73;;
18716;SDS011;9487;50.892;6.906;2022-12-20T03:32:51;4.93;;;4.30;;
18716;SDS011;9487;50.892;6.906;2022-12-20T03:35:18;4.87;;;4.33;;
18716;SDS011;9487;50.892;6.906;2022-12-20T03:37:45;4.60;;;4.20;;
18716;SDS011;9487;50.892;6.906;2022-12-20T03:40:12;4.27;;;3.83;;
18716;SDS011;9487;50.892;6.906;2022-12-20T03:42:40;4.10;;;3.70;;
18716;SDS011;9487;50.892;6.906;2022-12-20T03:45:07;4.80;;;3.87;;
18716;SDS011;9487;50.892;6.906;2022-12-20T03:47:34;3.40;;;3.10;;
18716;SDS011;9487;50.892;6.906;2022-12-20T03:50:03;4.47;;;3.30;;
18716;SDS011;9487;50.892;6.906;2022-12-20T03:52:30;5.53;;;3.27;;
18716;SDS011;9487;50.892;6.906;2022-12-20T03:54:57;3.70;;;3.40;;
18716;SDS011;9487;50.892;6.906;2022-12-20T03:57:24;5.80;;;3.83;;
18716;SDS011;9487;50.892;6.906;2022-12-20T03:59:51;7.70;;;4.13;;
18716;SDS011;9487;50.892;6.906;2022-12-20T04:02:18;4.33;;;3.87;;
18716;SDS011;9487;50.892;6.906;2022-12-20T04:04:46;4.87;;;4.30;;
18716;SDS011;9487;50.892;6.906;2022-12-20T04:07:15;7.03;;;4.37;;
18716;SDS011;9487;50.892;6.906;2022-12-20T04:09:42;5.10;;;4.60;;
18716;SDS011;9487;50.892;6.906;2022-12-20T04:12:08;7.83;;;5.10;;
18716;SDS011;9487;50.892;6.906;2022-12-20T04:14:35;6.50;;;4.73;;
18716;SDS011;9487;50.892;6.906;2022-12-20T04:17:02;7.67;;;4.80;;
18716;SDS011;9487;50.892;6.906;2022-12-20T04:19:29;7.73;;;5.63;;
18716;SDS011;9487;50.892;6.906;2022-12-20T04:21:56;6.67;;;5.07;;
18716;SDS011;9487;50.892;6.906;2022-12-20T04:24:24;6.97;;;5.20;;
18716;SDS011;9487;50.892;6.906;2022-12-20T04:26:51;9.33;;;5.70;;
18716;SDS011;9487;50.892;6.906;2022-12-20T04:29:18;5.37;;;4.57;;
18716;SDS011;9487;50.892;6.906;2022-12-20T04:31:45;5.17;;;4.60;;
18716;SDS011;9487;50.892;6.906;2022-12-20T04:34:11;5.53;;;5.00;;
18716;SDS011;9487;50.892;6.906;2022-12-20T04:36:38;4.50;;;4.20;;
18716;SDS011;9487;50.892;6.906;2022-12-20T04:39:05;7.93;;;5.33;;
18716;SDS011;9487;50.892;6.906;2022-12-20T04:41:33;6.27;;;4.87;;
18716;SDS011;9487;50.892;6.906;2022-12-20T04:44:00;5.80;;;4.87;;
18716;SDS011;9487;50.892;6.906;2022-12-20T04:46:27;6.43;;;5.30;;
18716;SDS011;9487;50.892;6.906;2022-12-20T04:48:53;5.90;;;4.80;;
18716;SDS011;9487;50.892;6.906;2022-12-20T04:51:20;6.10;;;5.47;;
18716;SDS011;9487;50.892;6.906;2022-12-20T04:53:47;6.67;;;5.50;;
18716;SDS011;9487;50.892;6.906;2022-12-20T04:56:16;8.47;;;5.87;;
18716;SDS011;9487;50.892;6.906;2022-12-20T04:58:46;6.37;;;5.77;;
18716;SDS011;9487;50.892;6.906;2022-12-20T05:01:15;5.63;;;5.13;;
18716;SDS011;9487;50.892;6.906;2022-12-20T05:03:42;5.20;;;4.47;;
18716;SDS011;9487;50.892;6.906;2022-12-20T05:06:09;5.60;;;4.10;;
18716;SDS011;9487;50.892;6.906;2022-12-20T05:08:36;7.27;;;5.03;;
18716;SDS011;9487;50.892;6.906;2022-12-20T05:11:03;5.20;;;4.70;;
18716;SDS011;9487;50.892;6.906;2022-12-20T05:13:31;8.20;;;5.07;;
18716;SDS011;9487;50.892;6.906;2022-12-20T05:16:00;5.90;;;4.50;;
18716;SDS011;9487;50.892;6.906;2022-12-20T05:18:27;5.37;;;4.60;;
18716;SDS011;9487;50.892;6.906;2022-12-20T05:20:55;5.90;;;4.83;;
18716;SDS011;9487;50.892;6.906;2022-12-20T05:23:40;5.40;;;4.83;;
18716;SDS011;9487;50.892;6.906;2022-12-20T05:26:25;5.60;;;5.00;;
18716;SDS011;9487;50.892;6.906;2022-12-20T05:28:54;7.03;;;4.90;;
18716;SDS011;9487;50.892;6.906;2022-12-20T05:31:22;6.47;;;4.90;;
18716;SDS011;9487;50.892;6.906;2022-12-20T05:33:49;5.10;;;4.67;;
18716;SDS011;9487;50.892;6.906;2022-12-20T05:36:16;5.67;;;5.07;;
18716;SDS011;9487;50.892;6.906;2022-12-20T05:38:43;6.07;;;5.47;;
18716;SDS011;9487;50.892;6.906;2022-12-20T05:41:10;6.27;;;5.33;;
18716;SDS011;9487;50.892;6.906;2022-12-20T05:43:36;6.43;;;5.83;;
18716;SDS011;9487;50.892;6.906;2022-12-20T05:46:04;6.87;;;5.50;;
18716;SDS011;9487;50.892;6.906;2022-12-20T05:48:33;8.17;;;5.53;;
18716;SDS011;9487;50.892;6.906;2022-12-20T05:51:00;6.90;;;6.00;;
18716;SDS011;9487;50.892;6.906;2022-12-20T05:53:26;9.50;;;6.20;;
18716;SDS011;9487;50.892;6.906;2022-12-20T05:55:54;10.27;;;6.17;;
18716;SDS011;9487;50.892;6.906;2022-12-20T05:58:21;7.57;;;5.97;;
18716;SDS011;9487;50.892;6.906;2022-12-20T06:00:48;7.57;;;5.80;;
18716;SDS011;9487;50.892;6.906;2022-12-20T06:03:14;9.47;;;6.37;;
18716;SDS011;9487;50.892;6.906;2022-12-20T06:05:43;8.50;;;6.50;;
18716;SDS011;9487;50.892;6.906;2022-12-20T06:08:10;7.70;;;6.80;;
18716;SDS011;9487;50.892;6.906;2022-12-20T06:10:38;6.80;;;6.10;;
18716;SDS011;9487;50.892;6.906;2022-12-20T06:13:06;7.83;;;6.30;;
18716;SDS011;9487;50.892;6.906;2022-12-20T06:15:34;8.33;;;6.60;;
18716;SDS011;9487;50.892;6.906;2022-12-20T06:18:01;8.37;;;6.93;;
18716;SDS011;9487;50.892;6.906;2022-12-20T06:20:28;7.63;;;6.40;;
18716;SDS011;9487;50.892;6.906;2022-12-20T06:22:56;8.17;;;6.87;;
18716;SDS011;9487;50.892;6.906;2022-12-20T06:25:23;9.60;;;7.47;;
18716;SDS011;9487;50.892;6.906;2022-12-20T06:27:51;8.33;;;6.97;;
18716;SDS011;9487;50.892;6.906;2022-12-20T06:30:18;9.30;;;6.83;;
18716;SDS011;9487;50.892;6.906;2022-12-20T06:32:46;7.40;;;6.53;;
18716;SDS011;9487;50.892;6.906;2022-12-20T06:35:13;7.70;;;6.80;;
18716;SDS011;9487;50.892;6.906;2022-12-20T06:37:40;7.30;;;6.60;;
18716;SDS011;9487;50.892;6.906;2022-12-20T06:40:09;7.40;;;6.60;;
18716;SDS011;9487;50.892;6.906;2022-12-20T06:42:38;7.60;;;6.33;;
18716;SDS011;9487;50.892;6.906;2022-12-20T06:45:05;9.10;;;6.57;;
18716;SDS011;9487;50.892;6.906;2022-12-20T06:47:32;7.73;;;6.40;;
18716;SDS011;9487;50.892;6.906;2022-12-20T06:49:59;8.33;;;6.23;;
18716;SDS011;9487;50.892;6.906;2022-12-20T06:52:26;7.07;;;6.37;;
18716;SDS011;9487;50.892;6.906;2022-12-20T06:54:53;8.37;;;6.37;;
18716;SDS011;9487;50.892;6.906;2022-12-20T06:57:21;7.50;;;6.00;;
18716;SDS011;9487;50.892;6.906;2022-12-20T06:59:48;8.80;;;6.37;;
18716;SDS011;9487;50.892;6.906;2022-12-20T07:02:15;9.53;;;6.93;;
18716;SDS011;9487;50.892;6.906;2022-12-20T07:04:41;9.17;;;6.50;;
18716;SDS011;9487;50.892;6.906;2022-12-20T07:07:10;7.27;;;6.50;;
18716;SDS011;9487;50.892;6.906;2022-12-20T07:09:37;7.67;;;6.40;;
18716;SDS011;9487;50.892;6.906;2022-12-20T07:12:05;7.60;;;6.53;;
18716;SDS011;9487;50.892;6.906;2022-12-20T07:14:33;12.27;;;6.60;;
18716;SDS011;9487;50.892;6.906;2022-12-20T07:17:00;7.57;;;6.87;;
18716;SDS011;9487;50.892;6.906;2022-12-20T07:19:27;7.70;;;6.13;;
18716;SDS011;9487;50.892;6.906;2022-12-20T07:21:54;7.50;;;6.27;;
18716;SDS011;9487;50.892;6.906;2022-12-20T07:24:21;7.40;;;6.60;;
18716;SDS011;9487;50.892;6.906;2022-12-20T07:26:48;7.63;;;6.80;;
18716;SDS011;9487;50.892;6.906;2022-12-20T07:29:15;7.07;;;5.83;;
18716;SDS011;9487;50.892;6.906;2022-12-20T07:31:43;6.43;;;5.83;;
18716;SDS011;9487;50.892;6.906;2022-12-20T07:34:10;6.80;;;5.80;;
18716;SDS011;9487;50.892;6.906;2022-12-20T07:36:37;7.80;;;6.47;;
18716;SDS011;9487;50.892;6.906;2022-12-20T07:39:03;10.37;;;6.87;;
18716;SDS011;9487;50.892;6.906;2022-12-20T07:41:30;8.40;;;6.87;;
18716;SDS011;9487;50.892;6.906;2022-12-20T07:43:57;7.77;;;6.97;;
18716;SDS011;9487;50.892;6.906;2022-12-20T07:46:24;8.67;;;6.83;;
18716;SDS011;9487;50.892;6.906;2022-12-20T07:48:53;7.97;;;6.50;;
18716;SDS011;9487;50.892;6.906;2022-12-20T07:51:21;8.53;;;6.63;;
18716;SDS011;9487;50.892;6.906;2022-12-20T07:53:51;9.23;;;7.20;;
18716;SDS011;9487;50.892;6.906;2022-12-20T07:56:22;7.93;;;6.80;;
18716;SDS011;9487;50.892;6.906;2022-12-20T07:58:50;8.83;;;7.23;;
18716;SDS011;9487;50.892;6.906;2022-12-20T08:01:22;8.43;;;7.40;;
18716;SDS011;9487;50.892;6.906;2022-12-20T08:03:53;8.17;;;7.37;;
18716;SDS011;9487;50.892;6.906;2022-12-20T08:06:23;9.30;;;6.80;;
18716;SDS011;9487;50.892;6.906;2022-12-20T08:08:50;9.27;;;6.93;;
18716;SDS011;9487;50.892;6.906;2022-12-20T08:11:19;10.47;;;7.10;;
18716;SDS011;9487;50.892;6.906;2022-12-20T08:13:49;7.67;;;6.37;;
18716;SDS011;9487;50.892;6.906;2022-12-20T08:16:16;8.33;;;6.37;;
18716;SDS011;9487;50.892;6.906;2022-12-20T08:18:43;6.90;;;6.13;;
18716;SDS011;9487;50.892;6.906;2022-12-20T08:21:11;9.87;;;7.20;;
18716;SDS011;9487;50.892;6.906;2022-12-20T08:23:38;7.20;;;6.50;;
18716;SDS011;9487;50.892;6.906;2022-12-20T08:26:05;6.63;;;5.93;;
18716;SDS011;9487;50.892;6.906;2022-12-20T08:28:33;7.93;;;6.40;;
18716;SDS011;9487;50.892;6.906;2022-12-20T08:31:00;6.97;;;5.90;;
18716;SDS011;9487;50.892;6.906;2022-12-20T08:33:27;6.60;;;5.87;;
18716;SDS011;9487;50.892;6.906;2022-12-20T08:35:57;8.93;;;6.17;;
18716;SDS011;9487;50.892;6.906;2022-12-20T08:38:26;7.27;;;5.67;;
18716;SDS011;9487;50.892;6.906;2022-12-20T08:40:55;12.43;;;6.27;;
18716;SDS011;9487;50.892;6.906;2022-12-20T08:43:26;7.63;;;6.00;;
18716;SDS011;9487;50.892;6.906;2022-12-20T08:45:53;8.20;;;5.90;;
18716;SDS011;9487;50.892;6.906;2022-12-20T08:48:20;10.13;;;6.10;;
18716;SDS011;9487;50.892;6.906;2022-12-20T08:50:52;6.73;;;6.03;;
18716;SDS011;9487;50.892;6.906;2022-12-20T08:53:19;7.07;;;5.63;;
18716;SDS011;9487;50.892;6.906;2022-12-20T08:55:48;6.73;;;5.33;;
18716;SDS011;9487;50.892;6.906;2022-12-20T08:58:14;6.80;;;4.67;;
18716;SDS011;9487;50.892;6.906;2022-12-20T09:00:41;5.00;;;4.47;;
18716;SDS011;9487;50.892;6.906;2022-12-20T09:03:08;5.80;;;4.40;;
18716;SDS011;9487;50.892;6.906;2022-12-20T09:05:35;5.27;;;4.00;;
18716;SDS011;9487;50.892;6.906;2022-12-20T09:08:08;5.37;;;4.60;;
18716;SDS011;9487;50.892;6.906;2022-12-20T09:10:34;6.13;;;3.80;;
18716;SDS011;9487;50.892;6.906;2022-12-20T09:13:03;3.97;;;3.57;;
18716;SDS011;9487;50.892;6.906;2022-12-20T09:15:29;4.00;;;3.23;;
18716;SDS011;9487;50.892;6.906;2022-12-20T09:17:58;4.97;;;3.40;;
18716;SDS011;9487;50.892;6.906;2022-12-20T09:20:25;3.77;;;3.47;;
18716;SDS011;9487;50.892;6.906;2022-12-20T09:22:52;5.80;;;3.50;;
18716;SDS011;9487;50.892;6.906;2022-12-20T09:25:19;5.23;;;3.40;;
18716;SDS011;9487;50.892;6.906;2022-12-20T09:27:46;6.97;;;3.90;;
18716;SDS011;9487;50.892;6.906;2022-12-20T09:30:14;5.00;;;3.67;;
18716;SDS011;9487;50.892;6.906;2022-12-20T09:32:41;4.50;;;4.03;;
18716;SDS011;9487;50.892;6.906;2022-12-20T09:35:08;3.87;;;3.00;;
18716;SDS011;9487;50.892;6.906;2022-12-20T09:37:35;5.80;;;3.53;;
18716;SDS011;9487;50.892;6.906;2022-12-20T09:40:02;6.30;;;4.00;;
18716;SDS011;9487;50.892;6.906;2022-12-20T09:42:29;5.87;;;3.93;;
18716;SDS011;9487;50.892;6.906;2022-12-20T09:44:58;5.07;;;3.50;;
18716;SDS011;9487;50.892;6.906;2022-12-20T09:47:30;3.80;;;2.80;;
18716;SDS011;9487;50.892;6.906;2022-12-20T09:49:59;4.67;;;2.70;;
18716;SDS011;9487;50.892;6.906;2022-12-20T09:52:29;3.33;;;2.90;;
18716;SDS011;9487;50.892;6.906;2022-12-20T09:55:09;3.80;;;2.80;;
18716;SDS011;9487;50.892;6.906;2022-12-20T09:57:46;3.70;;;2.77;;
18716;SDS011;9487;50.892;6.906;2022-12-20T10:00:23;3.20;;;2.90;;
18716;SDS011;9487;50.892;6.906;2022-12-20T10:02:52;4.37;;;2.80;;
18716;SDS011;9487;50.892;6.906;2022-12-20T10:05:21;3.73;;;2.60;;
18716;SDS011;9487;50.892;6.906;2022-12-20T10:07:58;4.20;;;2.30;;
18716;SDS011;9487;50.892;6.906;2022-12-20T10:10:47;4.97;;;2.40;;
18716;SDS011;9487;50.892;6.906;2022-12-20T10:13:22;5.10;;;3.07;;
18716;SDS011;9487;50.892;6.906;2022-12-20T10:16:02;3.83;;;2.80;;
18716;SDS011;9487;50.892;6.906;2022-12-20T10:18:42;3.10;;;2.27;;
18716;SDS011;9487;50.892;6.906;2022-12-20T10:21:20;3.10;;;2.50;;
18716;SDS011;9487;50.892;6.906;2022-12-20T10:23:57;3.20;;;2.37;;
18716;SDS011;9487;50.892;6.906;2022-12-20T10:26:27;2.97;;;2.50;;
18716;SDS011;9487;50.892;6.906;2022-12-20T10:28:55;2.57;;;2.30;;
18716;SDS011;9487;50.892;6.906;2022-12-20T10:31:22;5.13;;;2.53;;
18716;SDS011;9487;50.892;6.906;2022-12-20T10:33:50;5.27;;;3.00;;
18716;SDS011;9487;50.892;6.906;2022-12-20T10:36:18;3.27;;;2.83;;
18716;SDS011;9487;50.892;6.906;2022-12-20T10:38:48;4.07;;;2.70;;
18716;SDS011;9487;50.892;6.906;2022-12-20T10:41:18;5.57;;;2.50;;
18716;SDS011;9487;50.892;6.906;2022-12-20T10:43:46;3.90;;;2.70;;
18716;SDS011;9487;50.892;6.906;2022-12-20T10:46:17;2.87;;;2.50;;
18716;SDS011;9487;50.892;6.906;2022-12-20T10:48:45;5.30;;;3.40;;
18716;SDS011;9487;50.892;6.906;2022-12-20T10:51:15;3.37;;;2.30;;
18716;SDS011;9487;50.892;6.906;2022-12-20T10:53:51;2.67;;;2.20;;
18716;SDS011;9487;50.892;6.906;2022-12-20T10:56:21;5.77;;;2.90;;
18716;SDS011;9487;50.892;6.906;2022-12-20T10:58:52;3.80;;;2.70;;
18716;SDS011;9487;50.892;6.906;2022-12-20T11:01:21;3.37;;;2.13;;
18716;SDS011;9487;50.892;6.906;2022-12-20T11:03:55;3.80;;;2.30;;
18716;SDS011;9487;50.892;6.906;2022-12-20T11:06:27;4.83;;;2.43;;
18716;SDS011;9487;50.892;6.906;2022-12-20T11:09:16;2.80;;;2.13;;
18716;SDS011;9487;50.892;6.906;2022-12-20T11:11:57;4.37;;;2.27;;
18716;SDS011;9487;50.892;6.906;2022-12-20T11:14:29;4.47;;;2.30;;
18716;SDS011;9487;50.892;6.906;2022-12-20T11:16:57;2.40;;;2.20;;
18716;SDS011;9487;50.892;6.906;2022-12-20T11:19:29;3.80;;;2.30;;
18716;SDS011;9487;50.892;6.906;2022-12-20T11:22:16;4.57;;;2.43;;
18716;SDS011;9487;50.892;6.906;2022-12-20T11:24:55;3.73;;;2.57;;
18716;SDS011;9487;50.892;6.906;2022-12-20T11:27:29;4.77;;;2.13;;
18716;SDS011;9487;50.892;6.906;2022-12-20T11:30:05;3.20;;;2.10;;
18716;SDS011;9487;50.892;6.906;2022-12-20T11:35:42;4.33;;;2.30;;
18716;SDS011;9487;50.892;6.906;2022-12-20T11:38:26;2.97;;;2.40;;
18716;SDS011;9487;50.892;6.906;2022-12-20T11:41:07;3.80;;;2.50;;
18716;SDS011;9487;50.892;6.906;2022-12-20T11:43:51;4.30;;;2.70;;
18716;SDS011;9487;50.892;6.906;2022-12-20T11:46:33;3.23;;;2.30;;
18716;SDS011;9487;50.892;6.906;2022-12-20T11:49:17;2.77;;;2.47;;
18716;SDS011;9487;50.892;6.906;2022-12-20T11:55:21;3.70;;;2.60;;
18716;SDS011;9487;50.892;6.906;2022-12-20T11:57:56;4.77;;;2.80;;
18716;SDS011;9487;50.892;6.906;2022-12-20T12:00:26;3.57;;;2.57;;
18716;SDS011;9487;50.892;6.906;2022-12-20T12:02:56;4.10;;;2.90;;
18716;SDS011;9487;50.892;6.906;2022-12-20T12:05:26;5.00;;;2.70;;
18716;SDS011;9487;50.892;6.906;2022-12-20T12:08:02;4.60;;;2.83;;
18716;SDS011;9487;50.892;6.906;2022-12-20T12:10:38;3.40;;;3.10;;
18716;SDS011;9487;50.892;6.906;2022-12-20T12:13:10;4.13;;;3.00;;
18716;SDS011;9487;50.892;6.906;2022-12-20T12:15:45;4.93;;;3.40;;
18716;SDS011;9487;50.892;6.906;2022-12-20T12:18:17;3.47;;;2.90;;
18716;SDS011;9487;50.892;6.906;2022-12-20T12:20:47;3.43;;;3.03;;
18716;SDS011;9487;50.892;6.906;2022-12-20T12:23:28;4.97;;;3.27;;
18716;SDS011;9487;50.892;6.906;2022-12-20T12:26:01;3.20;;;2.90;;
18716;SDS011;9487;50.892;6.906;2022-12-20T12:28:31;6.13;;;3.20;;
18716;SDS011;9487;50.892;6.906;2022-12-20T12:31:02;3.47;;;3.17;;
18716;SDS011;9487;50.892;6.906;2022-12-20T12:33:34;4.60;;;3.60;;
18716;SDS011;9487;50.892;6.906;2022-12-20T12:36:19;5.20;;;3.70;;
18716;SDS011;9487;50.892;6.906;2022-12-20T12:39:26;3.80;;;3.50;;
18716;SDS011;9487;50.892;6.906;2022-12-20T12:42:14;6.77;;;3.30;;
18716;SDS011;9487;50.892;6.906;2022-12-20T12:45:13;4.17;;;3.53;;
18716;SDS011;9487;50.892;6.906;2022-12-20T12:47:46;3.50;;;2.93;;
18716;SDS011;9487;50.892;6.906;2022-12-20T12:50:20;4.53;;;3.60;;
18716;SDS011;9487;50.892;6.906;2022-12-20T12:52:51;7.80;;;3.40;;
18716;SDS011;9487;50.892;6.906;2022-12-20T12:55:43;5.33;;;3.40;;
18716;SDS011;9487;50.892;6.906;2022-12-20T12:58:14;4.17;;;3.00;;
18716;SDS011;9487;50.892;6.906;2022-12-20T13:00:56;5.00;;;2.90;;
18716;SDS011;9487;50.892;6.906;2022-12-20T13:03:42;4.30;;;3.20;;
18716;SDS011;9487;50.892;6.906;2022-12-20T13:09:15;4.90;;;3.40;;
18716;SDS011;9487;50.892;6.906;2022-12-20T13:11:46;5.93;;;3.50;;
18716;SDS011;9487;50.892;6.906;2022-12-20T13:17:39;5.07;;;3.83;;
18716;SDS011;9487;50.892;6.906;2022-12-20T13:20:16;4.67;;;3.80;;
18716;SDS011;9487;50.892;6.906;2022-12-20T13:23:04;7.27;;;4.37;;
18716;SDS011;9487;50.892;6.906;2022-12-20T13:25:42;5.00;;;4.60;;
18716;SDS011;9487;50.892;6.906;2022-12-20T13:31:31;7.03;;;4.70;;
18716;SDS011;9487;50.892;6.906;2022-12-20T13:34:00;4.90;;;4.50;;
18716;SDS011;9487;50.892;6.906;2022-12-20T13:36:29;5.17;;;4.60;;
18716;SDS011;9487;50.892;6.906;2022-12-20T13:38:58;6.03;;;4.40;;
18716;SDS011;9487;50.892;6.906;2022-12-20T13:41:29;8.23;;;5.07;;
18716;SDS011;9487;50.892;6.906;2022-12-20T13:44:00;7.10;;;4.97;;
18716;SDS011;9487;50.892;6.906;2022-12-20T13:46:39;4.80;;;3.90;;
18716;SDS011;9487;50.892;6.906;2022-12-20T13:49:14;4.67;;;3.70;;
18716;SDS011;9487;50.892;6.906;2022-12-20T13:51:47;5.73;;;3.23;;
18716;SDS011;9487;50.892;6.906;2022-12-20T13:54:14;3.80;;;3.00;;
18716;SDS011;9487;50.892;6.906;2022-12-20T13:56:44;3.93;;;2.80;;
18716;SDS011;9487;50.892;6.906;2022-12-20T13:59:13;4.63;;;3.63;;
18716;SDS011;9487;50.892;6.906;2022-12-20T14:01:49;5.20;;;3.87;;
18716;SDS011;9487;50.892;6.906;2022-12-20T14:04:19;5.23;;;3.37;;
18716;SDS011;9487;50.892;6.906;2022-12-20T14:06:49;5.70;;;4.27;;
18716;SDS011;9487;50.892;6.906;2022-12-20T14:09:25;6.97;;;4.00;;
18716;SDS011;9487;50.892;6.906;2022-12-20T14:11:53;6.27;;;3.80;;
18716;SDS011;9487;50.892;6.906;2022-12-20T14:14:20;7.30;;;4.13;;
18716;SDS011;9487;50.892;6.906;2022-12-20T14:16:48;5.30;;;3.77;;
18716;SDS011;9487;50.892;6.906;2022-12-20T14:19:15;5.80;;;4.37;;
18716;SDS011;9487;50.892;6.906;2022-12-20T14:21:42;7.20;;;4.90;;
18716;SDS011;9487;50.892;6.906;2022-12-20T14:24:11;8.43;;;4.60;;
18716;SDS011;9487;50.892;6.906;2022-12-20T14:26:42;9.03;;;5.43;;
18716;SDS011;9487;50.892;6.906;2022-12-20T14:29:15;7.60;;;4.70;;
18716;SDS011;9487;50.892;6.906;2022-12-20T14:31:44;8.30;;;4.80;;
18716;SDS011;9487;50.892;6.906;2022-12-20T14:34:15;6.20;;;4.30;;
18716;SDS011;9487;50.892;6.906;2022-12-20T14:36:45;6.70;;;4.10;;
18716;SDS011;9487;50.892;6.906;2022-12-20T14:39:23;4.70;;;3.67;;
18716;SDS011;9487;50.892;6.906;2022-12-20T14:41:55;5.03;;;3.50;;
18716;SDS011;9487;50.892;6.906;2022-12-20T14:44:24;6.53;;;3.90;;
18716;SDS011;9487;50.892;6.906;2022-12-20T14:46:52;6.23;;;4.03;;
18716;SDS011;9487;50.892;6.906;2022-12-20T14:49:23;4.23;;;2.97;;
18716;SDS011;9487;50.892;6.906;2022-12-20T14:52:03;5.63;;;3.43;;
18716;SDS011;9487;50.892;6.906;2022-12-20T14:54:32;4.83;;;3.40;;
18716;SDS011;9487;50.892;6.906;2022-12-20T14:57:00;7.27;;;3.90;;
18716;SDS011;9487;50.892;6.906;2022-12-20T14:59:27;5.00;;;3.80;;
18716;SDS011;9487;50.892;6.906;2022-12-20T15:01:55;5.20;;;3.87;;
18716;SDS011;9487;50.892;6.906;2022-12-20T15:04:29;5.77;;;4.30;;
18716;SDS011;9487;50.892;6.906;2022-12-20T15:06:57;5.73;;;4.03;;
18716;SDS011;9487;50.892;6.906;2022-12-20T15:09:24;4.30;;;3.90;;
18716;SDS011;9487;50.892;6.906;2022-12-20T15:11:51;7.17;;;4.00;;
18716;SDS011;9487;50.892;6.906;2022-12-20T15:14:27;4.83;;;4.00;;
18716;SDS011;9487;50.892;6.906;2022-12-20T15:16:59;4.60;;;4.20;;
18716;SDS011;9487;50.892;6.906;2022-12-20T15:19:27;4.77;;;3.63;;
18716;SDS011;9487;50.892;6.906;2022-12-20T15:21:55;4.67;;;3.30;;
18716;SDS011;9487;50.892;6.906;2022-12-20T15:24:22;5.47;;;3.50;;
18716;SDS011;9487;50.892;6.906;2022-12-20T15:26:50;3.90;;;3.10;;
18716;SDS011;9487;50.892;6.906;2022-12-20T15:29:18;4.13;;;2.90;;
18716;SDS011;9487;50.892;6.906;2022-12-20T15:31:48;5.43;;;3.63;;
18716;SDS011;9487;50.892;6.906;2022-12-20T15:34:17;3.70;;;3.00;;